Time;durP1;ratioP1;P1;durP2;ratioP2;P2;SDS_P1;SDS_P2;PMS_P1;PMS_P2;Temp;Humidity;BMP_temperature;BMP_pressure;BME280_temperature;BME280_humidity;BME280_pressure;Samples;Min_cycle;Max_cycle;Signal;HPM_P1;HPM_P2
2022/02/20 00:01:42;;;;;;;;;30.00;23.50;;;;;;;;5041599;28;51541;-51
2022/02/20 00:04:26;;;;;;;;;31.00;26.25;;;;;;;;5044279;28;51588;-51
2022/02/20 00:07:11;;;;;;;;;20.00;19.00;;;;;;;;5036500;28;51431;-53
2022/02/20 00:09:55;;;;;;;;;25.00;21.75;;;;;;;;5048790;28;50970;-50
2022/02/20 00:12:40;;;;;;;;;22.50;22.25;;;;;;;;5053374;28;51434;-53
2022/02/20 00:15:25;;;;;;;;;34.50;24.25;;;;;;;;5057613;28;51410;-55
2022/02/20 00:18:13;;;;;;;;;31.25;23.50;;;;;;;;5058116;28;51574;-55
2022/02/20 00:20:57;;;;;;;;;27.50;21.00;;;;;;;;5058450;28;51522;-50
2022/02/20 00:23:42;;;;;;;;;23.00;22.50;;;;;;;;5056889;28;51357;-51
2022/02/20 00:26:26;;;;;;;;;22.25;20.25;;;;;;;;5057842;28;51107;-48
2022/02/20 00:29:10;;;;;;;;;28.75;22.50;;;;;;;;5048493;28;51560;-54
2022/02/20 00:31:55;;;;;;;;;21.25;19.50;;;;;;;;5037378;28;52534;-52
2022/02/20 00:34:39;;;;;;;;;27.50;25.25;;;;;;;;5052155;28;51629;-52
2022/02/20 00:37:23;;;;;;;;;20.75;17.75;;;;;;;;5050338;28;51469;-53
2022/02/20 00:40:08;;;;;;;;;25.00;20.50;;;;;;;;5048635;28;51158;-56
2022/02/20 00:42:52;;;;;;;;;25.75;22.00;;;;;;;;5047635;28;51069;-50
2022/02/20 00:45:37;;;;;;;;;24.75;22.00;;;;;;;;5044801;28;51068;-53
2022/02/20 00:48:21;;;;;;;;;26.75;21.25;;;;;;;;5045305;28;51109;-55
2022/02/20 00:51:06;;;;;;;;;26.75;22.25;;;;;;;;5042663;28;51563;-52
2022/02/20 00:53:50;;;;;;;;;24.25;19.50;;;;;;;;5047611;28;52032;-54
2022/02/20 00:56:35;;;;;;;;;21.75;19.25;;;;;;;;5048659;28;51178;-54
2022/02/20 00:59:19;;;;;;;;;28.00;23.00;;;;;;;;5044915;28;51162;-51
2022/02/20 01:02:03;;;;;;;;;21.25;17.25;;;;;;;;5044510;28;51083;-52
2022/02/20 01:04:48;;;;;;;;;28.25;19.50;;;;;;;;5046352;28;51115;-52
2022/02/20 01:07:32;;;;;;;;;26.25;24.50;;;;;;;;5046778;28;51396;-55
2022/02/20 01:10:18;;;;;;;;;31.50;23.00;;;;;;;;5044360;28;51114;-51
2022/02/20 01:13:02;;;;;;;;;26.50;23.75;;;;;;;;5044697;28;51139;-52
2022/02/20 01:15:47;;;;;;;;;22.25;20.00;;;;;;;;5048110;28;51102;-52
2022/02/20 01:18:31;;;;;;;;;21.00;17.50;;;;;;;;5043443;28;51643;-54
2022/02/20 01:21:15;;;;;;;;;23.25;22.25;;;;;;;;5043782;28;51054;-50
2022/02/20 01:24:00;;;;;;;;;22.25;18.50;;;;;;;;5042304;28;51178;-53
2022/02/20 01:26:44;;;;;;;;;27.50;22.50;;;;;;;;5053614;28;51591;-51
2022/02/20 01:29:28;;;;;;;;;30.75;22.50;;;;;;;;5056823;28;51167;-54
2022/02/20 01:32:13;;;;;;;;;26.50;21.00;;;;;;;;5055957;28;51572;-55
2022/02/20 01:34:58;;;;;;;;;24.25;23.75;;;;;;;;5048697;28;51229;-54
2022/02/20 01:37:42;;;;;;;;;22.00;20.00;;;;;;;;5040667;28;51103;-51
2022/02/20 01:40:30;;;;;;;;;21.75;20.50;;;;;;;;5041847;28;52589;-54
2022/02/20 01:43:16;;;;;;;;;24.75;19.75;;;;;;;;5042226;28;51831;-54
2022/02/20 01:46:01;;;;;;;;;27.25;19.50;;;;;;;;5043445;28;51065;-54
2022/02/20 01:48:45;;;;;;;;;26.00;21.50;;;;;;;;5040307;28;51094;-53
2022/02/20 01:51:30;;;;;;;;;26.75;20.25;;;;;;;;5044089;28;51324;-53
2022/02/20 01:54:14;;;;;;;;;23.50;19.50;;;;;;;;5040512;28;51119;-55
2022/02/20 01:56:59;;;;;;;;;33.00;23.00;;;;;;;;5040065;28;51073;-54
2022/02/20 01:59:44;;;;;;;;;30.00;22.00;;;;;;;;5042995;28;51253;-52
2022/02/20 02:02:28;;;;;;;;;27.50;22.50;;;;;;;;5047176;28;51307;-53
2022/02/20 02:05:13;;;;;;;;;27.00;19.00;;;;;;;;5042096;28;51060;-50
2022/02/20 02:07:57;;;;;;;;;25.25;20.00;;;;;;;;5041675;28;51662;-53
2022/02/20 02:10:42;;;;;;;;;23.25;21.25;;;;;;;;5040915;28;51193;-49
2022/02/20 02:13:26;;;;;;;;;26.50;21.75;;;;;;;;5041948;28;51064;-54
2022/02/20 02:16:12;;;;;;;;;31.25;22.50;;;;;;;;5041012;28;51333;-52
2022/02/20 02:18:56;;;;;;;;;26.25;22.75;;;;;;;;5042792;28;51309;-53
2022/02/20 02:21:40;;;;;;;;;30.50;22.00;;;;;;;;5042533;28;51584;-50
2022/02/20 02:24:25;;;;;;;;;25.00;21.75;;;;;;;;5044037;28;51104;-53
2022/02/20 02:27:11;;;;;;;;;24.75;18.00;;;;;;;;5042993;28;51248;-52
2022/02/20 02:29:56;;;;;;;;;21.25;20.75;;;;;;;;5040966;28;51600;-54
2022/02/20 02:32:41;;;;;;;;;23.00;19.75;;;;;;;;5046359;28;51138;-54
2022/02/20 02:35:25;;;;;;;;;28.00;21.50;;;;;;;;5032075;28;51255;-53
2022/02/20 02:38:09;;;;;;;;;24.25;21.75;;;;;;;;5045186;28;51544;-54
2022/02/20 02:40:55;;;;;;;;;23.50;20.25;;;;;;;;5041415;28;51245;-54
2022/02/20 02:43:39;;;;;;;;;24.25;19.75;;;;;;;;5046327;28;51377;-54
2022/02/20 02:46:24;;;;;;;;;24.00;20.75;;;;;;;;5041817;28;51438;-53
2022/02/20 02:49:09;;;;;;;;;27.00;21.25;;;;;;;;5042147;28;51180;-56
2022/02/20 02:51:53;;;;;;;;;24.50;19.25;;;;;;;;5046876;28;51190;-54
2022/02/20 02:54:38;;;;;;;;;29.25;22.25;;;;;;;;5051290;28;51332;-52
2022/02/20 02:57:22;;;;;;;;;24.75;21.75;;;;;;;;5043083;28;51506;-51
2022/02/20 03:00:07;;;;;;;;;33.50;23.00;;;;;;;;5042030;28;51077;-49
2022/02/20 03:02:51;;;;;;;;;24.75;18.75;;;;;;;;5042563;28;51088;-50
2022/02/20 03:05:36;;;;;;;;;16.50;16.00;;;;;;;;5040322;28;51143;-54
2022/02/20 03:08:20;;;;;;;;;28.75;21.00;;;;;;;;5040150;28;51154;-51
2022/02/20 03:11:05;;;;;;;;;26.00;22.00;;;;;;;;5040361;28;51104;-53
2022/02/20 03:13:50;;;;;;;;;18.25;17.75;;;;;;;;5047630;28;51048;-53
2022/02/20 03:16:34;;;;;;;;;24.25;18.50;;;;;;;;5039133;28;51568;-51
2022/02/20 03:19:19;;;;;;;;;26.00;23.50;;;;;;;;5039129;28;51195;-54
2022/02/20 03:22:03;;;;;;;;;26.25;21.25;;;;;;;;5045438;28;51482;-52
2022/02/20 03:24:47;;;;;;;;;22.75;19.75;;;;;;;;5039885;28;51820;-51
2022/02/20 03:27:32;;;;;;;;;22.50;19.25;;;;;;;;5041475;28;51109;-52
2022/02/20 03:30:16;;;;;;;;;25.75;24.25;;;;;;;;5038723;28;51199;-53
2022/02/20 03:33:00;;;;;;;;;25.25;24.00;;;;;;;;5040498;28;51056;-53
2022/02/20 03:35:45;;;;;;;;;29.75;24.75;;;;;;;;5039989;28;51694;-50
2022/02/20 03:38:30;;;;;;;;;26.50;22.25;;;;;;;;5041657;28;52329;-50
2022/02/20 03:41:14;;;;;;;;;28.25;23.25;;;;;;;;5040090;28;51236;-56
2022/02/20 03:43:59;;;;;;;;;28.00;21.50;;;;;;;;5042127;28;51052;-54
2022/02/20 03:46:43;;;;;;;;;28.00;22.50;;;;;;;;5038667;28;51206;-52
2022/02/20 03:49:27;;;;;;;;;25.25;21.25;;;;;;;;5050412;28;51008;-53
2022/02/20 03:52:12;;;;;;;;;26.50;20.75;;;;;;;;5051212;28;52156;-52
2022/02/20 03:54:56;;;;;;;;;26.25;22.50;;;;;;;;5042066;28;51092;-53
2022/02/20 03:57:40;;;;;;;;;28.00;22.75;;;;;;;;5048212;28;51219;-51
2022/02/20 04:00:26;;;;;;;;;32.25;25.25;;;;;;;;5043611;28;51609;-51
2022/02/20 04:03:10;;;;;;;;;31.25;27.25;;;;;;;;5043352;28;51122;-53
2022/02/20 04:05:55;;;;;;;;;28.50;24.25;;;;;;;;5043056;28;51225;-54
2022/02/20 04:08:39;;;;;;;;;31.75;25.50;;;;;;;;5044709;28;51341;-54
2022/02/20 04:11:24;;;;;;;;;33.25;28.50;;;;;;;;5055252;28;51591;-51
2022/02/20 04:14:08;;;;;;;;;27.75;26.00;;;;;;;;5044841;28;52619;-55
2022/02/20 04:16:52;;;;;;;;;29.75;24.75;;;;;;;;5044558;28;51122;-52
2022/02/20 04:19:37;;;;;;;;;30.50;22.50;;;;;;;;5042447;28;51473;-53
2022/02/20 04:22:21;;;;;;;;;30.50;26.25;;;;;;;;5044022;28;51201;-52
2022/02/20 04:25:06;;;;;;;;;31.75;28.50;;;;;;;;5043060;28;51147;-53
2022/02/20 04:27:50;;;;;;;;;27.50;25.50;;;;;;;;5041690;28;51110;-56
2022/02/20 04:30:35;;;;;;;;;33.50;27.00;;;;;;;;5046668;28;51195;-53
2022/02/20 04:33:20;;;;;;;;;30.75;25.25;;;;;;;;5041989;28;51202;-52
2022/02/20 04:36:04;;;;;;;;;29.50;26.25;;;;;;;;5041956;28;51132;-52
2022/02/20 04:38:49;;;;;;;;;33.75;28.00;;;;;;;;5042952;28;51397;-53
2022/02/20 04:41:33;;;;;;;;;30.50;25.50;;;;;;;;5045498;28;51113;-52
2022/02/20 04:44:18;;;;;;;;;33.25;27.25;;;;;;;;5045027;28;51171;-51
2022/02/20 04:47:02;;;;;;;;;29.75;27.00;;;;;;;;5041826;28;51132;-50
2022/02/20 04:49:47;;;;;;;;;33.00;23.50;;;;;;;;5046130;28;51632;-52
2022/02/20 04:52:32;;;;;;;;;32.00;28.25;;;;;;;;5042432;28;51069;-56
2022/02/20 04:55:16;;;;;;;;;30.75;28.50;;;;;;;;5041784;28;51065;-52
2022/02/20 04:58:01;;;;;;;;;28.75;25.75;;;;;;;;5048794;28;51050;-49
2022/02/20 05:00:45;;;;;;;;;38.50;26.75;;;;;;;;5052772;28;51307;-54
2022/02/20 05:03:29;;;;;;;;;29.50;26.00;;;;;;;;5044891;28;51325;-52
2022/02/20 05:06:14;;;;;;;;;33.50;26.00;;;;;;;;5055555;28;51258;-49
2022/02/20 05:08:58;;;;;;;;;33.75;26.50;;;;;;;;5041987;28;51575;-53
2022/02/20 05:11:43;;;;;;;;;36.25;30.00;;;;;;;;5056485;28;51126;-52
2022/02/20 05:14:27;;;;;;;;;33.50;28.00;;;;;;;;5049285;28;51021;-51
2022/02/20 05:17:12;;;;;;;;;33.00;30.25;;;;;;;;5045551;28;51096;-53
2022/02/20 05:19:56;;;;;;;;;34.75;26.75;;;;;;;;5045528;28;51162;-53
2022/02/20 05:22:41;;;;;;;;;31.50;28.00;;;;;;;;5041749;28;51162;-50
2022/02/20 05:25:25;;;;;;;;;36.50;29.75;;;;;;;;5047317;28;51155;-53
2022/02/20 05:28:09;;;;;;;;;35.00;30.00;;;;;;;;5047716;28;51377;-53
2022/02/20 05:30:54;;;;;;;;;36.50;30.50;;;;;;;;5040747;28;51027;-50
2022/02/20 05:33:38;;;;;;;;;39.00;33.25;;;;;;;;5043881;28;51532;-55
2022/02/20 05:36:24;;;;;;;;;42.25;34.00;;;;;;;;5044039;28;51163;-48
2022/02/20 05:39:08;;;;;;;;;47.75;36.25;;;;;;;;5041728;28;51121;-50
2022/02/20 05:41:53;;;;;;;;;51.00;37.50;;;;;;;;5043407;28;51020;-54
2022/02/20 05:44:37;;;;;;;;;47.25;38.75;;;;;;;;5043961;28;51495;-52
2022/02/20 05:47:21;;;;;;;;;38.75;31.00;;;;;;;;5045699;28;51251;-53
2022/02/20 05:50:07;;;;;;;;;42.00;32.25;;;;;;;;5033945;28;51723;-54
2022/02/20 05:52:51;;;;;;;;;41.75;33.50;;;;;;;;5044121;28;51184;-50
2022/02/20 05:55:37;;;;;;;;;36.75;29.25;;;;;;;;5041859;28;51072;-52
2022/02/20 05:58:21;;;;;;;;;39.00;31.25;;;;;;;;5040546;28;51198;-53
2022/02/20 06:01:06;;;;;;;;;35.50;29.75;;;;;;;;5044208;28;51318;-52
2022/02/20 06:03:50;;;;;;;;;39.25;32.75;;;;;;;;5042453;28;51615;-53
2022/02/20 06:06:34;;;;;;;;;40.50;33.50;;;;;;;;5041290;28;51103;-53
2022/02/20 06:09:19;;;;;;;;;51.25;41.25;;;;;;;;5040971;28;51253;-51
2022/02/20 06:12:03;;;;;;;;;46.25;37.25;;;;;;;;5042524;28;51063;-53
2022/02/20 06:14:48;;;;;;;;;46.25;34.25;;;;;;;;5046676;28;51537;-54
2022/02/20 06:17:32;;;;;;;;;49.75;38.00;;;;;;;;5040077;28;51263;-54
2022/02/20 06:20:16;;;;;;;;;47.75;36.50;;;;;;;;5044620;28;51095;-52
2022/02/20 06:23:01;;;;;;;;;42.25;34.50;;;;;;;;5041860;28;51447;-55
2022/02/20 06:25:45;;;;;;;;;43.75;32.50;;;;;;;;5047453;28;51095;-53
2022/02/20 06:28:30;;;;;;;;;44.50;32.25;;;;;;;;5051113;28;51532;-52
2022/02/20 06:31:14;;;;;;;;;46.00;32.75;;;;;;;;5042929;28;51168;-52
2022/02/20 06:33:59;;;;;;;;;49.00;36.50;;;;;;;;5039613;28;51400;-52
2022/02/20 06:36:43;;;;;;;;;48.00;37.25;;;;;;;;5057019;28;51177;-54
2022/02/20 06:39:28;;;;;;;;;53.75;42.00;;;;;;;;5041647;28;51165;-55
2022/02/20 06:42:13;;;;;;;;;61.00;48.50;;;;;;;;5042724;28;51150;-52
2022/02/20 06:44:57;;;;;;;;;53.50;42.75;;;;;;;;5042378;28;51127;-52
2022/02/20 06:47:41;;;;;;;;;51.50;40.25;;;;;;;;5040330;28;51574;-51
2022/02/20 06:50:26;;;;;;;;;51.75;41.75;;;;;;;;5040038;28;51235;-55
2022/02/20 06:53:10;;;;;;;;;53.75;43.50;;;;;;;;5051288;28;51522;-54
2022/02/20 06:55:55;;;;;;;;;49.75;39.75;;;;;;;;5040892;28;51162;-51
2022/02/20 06:58:39;;;;;;;;;43.00;34.75;;;;;;;;5040209;28;51162;-51
2022/02/20 07:01:24;;;;;;;;;50.75;40.50;;;;;;;;5039963;28;51340;-54
2022/02/20 07:04:09;;;;;;;;;48.00;40.25;;;;;;;;5046148;28;51172;-54
2022/02/20 07:06:54;;;;;;;;;50.75;36.50;;;;;;;;5039969;28;51138;-53
2022/02/20 07:09:38;;;;;;;;;50.00;39.50;;;;;;;;5043289;28;51166;-54
2022/02/20 07:12:23;;;;;;;;;53.25;41.00;;;;;;;;5040051;28;51623;-54
2022/02/20 07:15:08;;;;;;;;;53.50;40.50;;;;;;;;5041116;28;51116;-53
2022/02/20 07:17:52;;;;;;;;;49.00;37.00;;;;;;;;5039752;28;51035;-49
2022/02/20 07:20:36;;;;;;;;;47.50;38.75;;;;;;;;5046154;28;51178;-55
2022/02/20 07:23:20;;;;;;;;;54.50;42.25;;;;;;;;5051333;28;51102;-52
2022/02/20 07:26:05;;;;;;;;;52.25;39.50;;;;;;;;5049076;28;51957;-53
2022/02/20 07:28:50;;;;;;;;;46.00;36.50;;;;;;;;5053533;28;51674;-52
2022/02/20 07:31:34;;;;;;;;;51.00;39.75;;;;;;;;5057087;28;51050;-55
2022/02/20 07:34:18;;;;;;;;;52.50;39.50;;;;;;;;5057211;28;51175;-55
2022/02/20 07:37:03;;;;;;;;;47.25;38.00;;;;;;;;5057363;28;51419;-53
2022/02/20 07:39:47;;;;;;;;;52.50;39.50;;;;;;;;5059828;28;51130;-54
2022/02/20 07:42:32;;;;;;;;;48.75;36.75;;;;;;;;5060244;28;51078;-55
2022/02/20 07:45:17;;;;;;;;;45.25;34.50;;;;;;;;5061243;28;51114;-56
2022/02/20 07:48:03;;;;;;;;;45.75;38.00;;;;;;;;5042222;28;51550;-53
2022/02/20 07:50:47;;;;;;;;;44.50;36.00;;;;;;;;5042719;28;51131;-55
2022/02/20 07:53:31;;;;;;;;;46.50;34.75;;;;;;;;5048030;28;51539;-49
2022/02/20 07:56:16;;;;;;;;;40.25;33.00;;;;;;;;5049322;28;51127;-52
2022/02/20 07:59:00;;;;;;;;;31.25;28.00;;;;;;;;5052647;28;51197;-51
2022/02/20 08:01:45;;;;;;;;;42.50;34.00;;;;;;;;5056164;28;51305;-57
2022/02/20 08:04:29;;;;;;;;;40.75;32.75;;;;;;;;5050794;28;51199;-54
2022/02/20 08:07:13;;;;;;;;;39.75;31.50;;;;;;;;5046125;28;51082;-48
2022/02/20 08:09:58;;;;;;;;;33.25;28.00;;;;;;;;5042307;28;51509;-56
2022/02/20 08:12:42;;;;;;;;;37.25;29.50;;;;;;;;5041409;28;51344;-51
2022/02/20 08:15:27;;;;;;;;;31.50;27.50;;;;;;;;5042121;28;51214;-54
2022/02/20 08:18:11;;;;;;;;;31.50;26.00;;;;;;;;5043281;28;51231;-50
2022/02/20 08:20:56;;;;;;;;;30.00;27.75;;;;;;;;5045673;28;51060;-57
2022/02/20 08:23:40;;;;;;;;;35.00;29.25;;;;;;;;5042862;28;51014;-57
2022/02/20 08:26:25;;;;;;;;;37.50;27.50;;;;;;;;5043980;28;51419;-53
2022/02/20 08:29:09;;;;;;;;;30.25;26.75;;;;;;;;5044728;28;51178;-53
2022/02/20 08:31:54;;;;;;;;;26.00;22.50;;;;;;;;5043235;28;51131;-56
2022/02/20 08:34:38;;;;;;;;;37.25;27.50;;;;;;;;5045523;28;51111;-53
2022/02/20 08:37:23;;;;;;;;;30.00;23.75;;;;;;;;5042634;28;51155;-61
2022/02/20 08:40:07;;;;;;;;;24.00;20.25;;;;;;;;5047662;28;51219;-50
2022/02/20 08:42:51;;;;;;;;;22.75;17.75;;;;;;;;5044662;28;53040;-52
2022/02/20 08:45:36;;;;;;;;;25.00;21.25;;;;;;;;5042107;28;51154;-48
2022/02/20 08:48:20;;;;;;;;;22.00;19.50;;;;;;;;5041374;28;51045;-54
2022/02/20 08:51:06;;;;;;;;;23.00;17.50;;;;;;;;5051248;28;51357;-57
2022/02/20 08:53:50;;;;;;;;;20.25;18.00;;;;;;;;5047116;28;51226;-52
2022/02/20 08:56:34;;;;;;;;;13.75;13.75;;;;;;;;5043543;28;51148;-55
2022/02/20 08:59:19;;;;;;;;;21.75;16.00;;;;;;;;5045693;28;51225;-56
2022/02/20 09:02:04;;;;;;;;;18.75;18.25;;;;;;;;5045916;28;51099;-57
2022/02/20 09:04:48;;;;;;;;;20.75;18.50;;;;;;;;5050277;28;51587;-53
2022/02/20 09:07:32;;;;;;;;;15.25;13.75;;;;;;;;5046286;28;51306;-54
2022/02/20 09:10:16;;;;;;;;;19.50;18.25;;;;;;;;5047605;28;51736;-55
2022/02/20 09:13:01;;;;;;;;;19.75;19.00;;;;;;;;5048238;28;51189;-54
2022/02/20 09:15:45;;;;;;;;;17.50;16.00;;;;;;;;5050796;28;51217;-49
2022/02/20 09:18:30;;;;;;;;;20.00;16.75;;;;;;;;5041964;28;51200;-49
2022/02/20 09:21:14;;;;;;;;;18.75;16.75;;;;;;;;5048869;28;51708;-55
2022/02/20 09:23:59;;;;;;;;;21.00;17.00;;;;;;;;5045365;28;51100;-55
2022/02/20 09:26:44;;;;;;;;;18.75;14.75;;;;;;;;5044513;28;51095;-53
2022/02/20 09:29:33;;;;;;;;;19.25;17.00;;;;;;;;5042009;28;51464;-56
2022/02/20 09:32:21;;;;;;;;;20.00;17.00;;;;;;;;5052028;28;51517;-53
2022/02/20 09:35:05;;;;;;;;;17.50;16.00;;;;;;;;5056978;28;51400;-48
2022/02/20 09:37:50;;;;;;;;;17.25;15.25;;;;;;;;5059341;28;51139;-48
2022/02/20 09:40:34;;;;;;;;;17.50;16.00;;;;;;;;5058138;28;51538;-52
2022/02/20 09:43:19;;;;;;;;;15.75;14.50;;;;;;;;5042587;28;51023;-55
2022/02/20 09:46:04;;;;;;;;;19.00;14.75;;;;;;;;5043044;28;51165;-52
2022/02/20 09:48:53;;;;;;;;;18.75;14.50;;;;;;;;5040133;28;51064;-59
2022/02/20 09:51:37;;;;;;;;;18.50;17.50;;;;;;;;5039330;28;52027;-58
2022/02/20 09:54:21;;;;;;;;;17.25;15.00;;;;;;;;5043571;28;50965;-53
2022/02/20 09:57:06;;;;;;;;;21.25;17.50;;;;;;;;5042935;28;51132;-51
2022/02/20 09:59:50;;;;;;;;;19.25;15.75;;;;;;;;5040018;28;51076;-51
2022/02/20 10:02:36;;;;;;;;;18.50;15.00;;;;;;;;5044411;28;51137;-48
2022/02/20 10:05:22;;;;;;;;;17.75;15.00;;;;;;;;5040425;28;52033;-52
2022/02/20 10:08:17;;;;;;;;;19.00;17.25;;;;;;;;5055754;28;51679;-54
2022/02/20 10:11:13;;;;;;;;;23.25;16.75;;;;;;;;5058980;28;51119;-52
2022/02/20 10:14:04;;;;;;;;;18.00;13.00;;;;;;;;5039454;28;51308;-48
2022/02/20 10:16:48;;;;;;;;;17.75;17.50;;;;;;;;5039050;28;51532;-53
2022/02/20 10:19:32;;;;;;;;;24.50;17.00;;;;;;;;5056058;28;51133;-59
2022/02/20 10:22:43;;;;;;;;;18.75;16.75;;;;;;;;5041472;28;51557;-53
2022/02/20 10:25:27;;;;;;;;;17.00;14.00;;;;;;;;5055302;28;51139;-54
2022/02/20 10:28:11;;;;;;;;;8.50;8.50;;;;;;;;5050405;28;51095;-52
2022/02/20 10:30:56;;;;;;;;;19.50;15.50;;;;;;;;5059038;28;51819;-50
2022/02/20 10:33:40;;;;;;;;;20.25;17.50;;;;;;;;5040693;28;51605;-52
2022/02/20 10:36:44;;;;;;;;;17.25;15.75;;;;;;;;5043248;28;51150;-51
2022/02/20 10:39:33;;;;;;;;;17.75;15.50;;;;;;;;5041875;28;51177;-50
2022/02/20 10:42:19;;;;;;;;;20.00;17.00;;;;;;;;5059007;28;51119;-48
2022/02/20 10:45:04;;;;;;;;;17.50;14.50;;;;;;;;5048014;28;51116;-54
2022/02/20 10:47:49;;;;;;;;;19.75;16.50;;;;;;;;5038632;28;51407;-46
2022/02/20 10:50:34;;;;;;;;;20.75;15.50;;;;;;;;5041693;28;51077;-51
2022/02/20 10:53:19;;;;;;;;;18.75;16.25;;;;;;;;5042080;28;51140;-55
2022/02/20 10:56:03;;;;;;;;;20.25;16.25;;;;;;;;5041708;28;51172;-50
2022/02/20 10:58:51;;;;;;;;;22.25;17.75;;;;;;;;5048357;28;51576;-52
2022/02/20 11:01:35;;;;;;;;;16.00;15.00;;;;;;;;5041543;28;51486;-51
2022/02/20 11:04:20;;;;;;;;;17.50;13.25;;;;;;;;5038840;28;51067;-50
2022/02/20 11:07:04;;;;;;;;;17.00;15.00;;;;;;;;5038264;28;51069;-50
2022/02/20 11:09:49;;;;;;;;;17.25;16.25;;;;;;;;5038660;28;51151;-49
2022/02/20 11:12:35;;;;;;;;;26.75;23.50;;;;;;;;5038681;28;51607;-50
2022/02/20 11:15:20;;;;;;;;;22.25;19.00;;;;;;;;5038096;28;51118;-47
2022/02/20 11:18:05;;;;;;;;;16.75;15.75;;;;;;;;5039003;28;51069;-54
2022/02/20 11:20:53;;;;;;;;;17.75;11.50;;;;;;;;5038300;28;51152;-50
2022/02/20 11:23:40;;;;;;;;;18.25;13.50;;;;;;;;5040488;28;51511;-54
2022/02/20 11:26:25;;;;;;;;;19.75;15.25;;;;;;;;5047087;28;51142;-56
2022/02/20 11:29:10;;;;;;;;;16.75;15.00;;;;;;;;5051060;28;51115;-53
2022/02/20 11:31:55;;;;;;;;;20.50;16.50;;;;;;;;5051212;28;51462;-52
2022/02/20 11:34:44;;;;;;;;;22.00;15.25;;;;;;;;5051027;28;51506;-51
2022/02/20 11:37:47;;;;;;;;;18.25;15.50;;;;;;;;5050290;28;51428;-49
2022/02/20 11:40:48;;;;;;;;;18.50;15.00;;;;;;;;5055366;28;51152;-49
2022/02/20 11:43:40;;;;;;;;;16.25;14.75;;;;;;;;5055616;28;51210;-51
2022/02/20 11:46:26;;;;;;;;;21.00;19.25;;;;;;;;5054291;28;51233;-55
2022/02/20 11:49:16;;;;;;;;;19.75;15.00;;;;;;;;5053837;28;51556;-58
2022/02/20 11:52:09;;;;;;;;;16.25;14.75;;;;;;;;5054185;28;51265;-54
2022/02/20 11:54:58;;;;;;;;;19.50;14.50;;;;;;;;5055005;28;51142;-52
2022/02/20 11:57:44;;;;;;;;;18.50;14.50;;;;;;;;5052465;28;51115;-51
2022/02/20 12:00:28;;;;;;;;;19.25;14.50;;;;;;;;5054966;28;51162;-48
2022/02/20 12:03:19;;;;;;;;;19.00;14.25;;;;;;;;5052203;28;51107;-53
2022/02/20 12:06:17;;;;;;;;;18.75;17.50;;;;;;;;5051526;28;51116;-59
2022/02/20 12:09:01;;;;;;;;;17.25;13.25;;;;;;;;5053229;28;51185;-51
2022/02/20 12:11:46;;;;;;;;;22.50;15.50;;;;;;;;5056170;28;51553;-54
2022/02/20 12:14:32;;;;;;;;;20.25;16.00;;;;;;;;5057348;28;51459;-53
2022/02/20 12:17:17;;;;;;;;;21.75;17.00;;;;;;;;5051790;28;52146;-54
2022/02/20 12:20:01;;;;;;;;;15.75;14.25;;;;;;;;5043214;28;51094;-52
2022/02/20 12:22:47;;;;;;;;;17.50;16.00;;;;;;;;5054148;28;51100;-55
2022/02/20 12:25:38;;;;;;;;;17.25;16.25;;;;;;;;5053053;28;52320;-53
2022/02/20 12:28:31;;;;;;;;;26.75;18.50;;;;;;;;5051019;28;51642;-54
2022/02/20 12:31:17;;;;;;;;;19.00;14.75;;;;;;;;5053689;28;51794;-53
2022/02/20 12:34:01;;;;;;;;;18.25;15.00;;;;;;;;5050792;28;51197;-57
2022/02/20 12:36:46;;;;;;;;;14.50;14.00;;;;;;;;5053210;28;51359;-55
2022/02/20 12:39:30;;;;;;;;;15.00;13.50;;;;;;;;5050856;28;51146;-53
2022/02/20 12:42:15;;;;;;;;;14.50;13.25;;;;;;;;5054559;28;51133;-57
2022/02/20 12:45:01;;;;;;;;;14.00;13.00;;;;;;;;5052177;28;52602;-55
2022/02/20 12:47:49;;;;;;;;;12.75;9.25;;;;;;;;5048877;28;51411;-55
2022/02/20 12:50:35;;;;;;;;;13.00;12.00;;;;;;;;5050863;28;51170;-57
2022/02/20 12:53:19;;;;;;;;;15.50;13.50;;;;;;;;5051090;28;51462;-54
2022/02/20 12:56:05;;;;;;;;;15.25;12.75;;;;;;;;5054487;28;51197;-53
2022/02/20 12:58:50;;;;;;;;;15.00;12.75;;;;;;;;5052004;28;52339;-55
2022/02/20 13:01:34;;;;;;;;;15.50;13.00;;;;;;;;5051407;28;51480;-54
2022/02/20 13:04:19;;;;;;;;;11.75;11.50;;;;;;;;5048564;28;51505;-54
2022/02/20 13:07:04;;;;;;;;;16.25;11.00;;;;;;;;5054533;28;51102;-56
2022/02/20 13:09:48;;;;;;;;;17.00;10.50;;;;;;;;5055888;28;51256;-55
2022/02/20 13:12:32;;;;;;;;;13.75;11.75;;;;;;;;5053450;28;51462;-53
2022/02/20 13:15:17;;;;;;;;;13.50;9.75;;;;;;;;5053565;28;51246;-53
2022/02/20 13:18:07;;;;;;;;;13.50;10.75;;;;;;;;5050088;28;51163;-57
2022/02/20 13:20:51;;;;;;;;;15.00;11.00;;;;;;;;5056928;28;51160;-54
2022/02/20 13:23:36;;;;;;;;;21.25;12.75;;;;;;;;5052819;28;51028;-52
2022/02/20 13:26:22;;;;;;;;;3.25;3.25;;;;;;;;5053224;28;51312;-56
2022/02/20 13:29:06;;;;;;;;;13.25;12.00;;;;;;;;5042412;28;51123;-54
2022/02/20 13:31:51;;;;;;;;;13.00;12.25;;;;;;;;5041840;28;51573;-56
2022/02/20 13:34:35;;;;;;;;;12.00;10.50;;;;;;;;5041553;28;51393;-54
2022/02/20 13:37:21;;;;;;;;;15.25;11.50;;;;;;;;5043941;28;51267;-56
2022/02/20 13:40:06;;;;;;;;;19.25;13.75;;;;;;;;5041603;28;51101;-49
2022/02/20 13:43:03;;;;;;;;;13.25;11.50;;;;;;;;5056268;28;51911;-55
2022/02/20 13:45:50;;;;;;;;;17.50;11.25;;;;;;;;5055980;28;51129;-56
2022/02/20 13:48:35;;;;;;;;;11.50;9.75;;;;;;;;5044366;28;51452;-56
2022/02/20 13:51:52;;;;;;;;;16.00;12.75;;;;;;;;5039364;28;51026;-57
2022/02/20 13:54:37;;;;;;;;;17.00;11.25;;;;;;;;5010116;28;51498;-57
2022/02/20 13:57:25;;;;;;;;;12.75;11.25;;;;;;;;5044309;28;51537;-58
2022/02/20 14:00:10;;;;;;;;;12.50;9.50;;;;;;;;5041714;28;51476;-55
2022/02/20 14:02:57;;;;;;;;;10.00;9.25;;;;;;;;5039162;28;51136;-58
2022/02/20 14:05:42;;;;;;;;;11.50;9.25;;;;;;;;5040096;28;51238;-55
2022/02/20 14:08:27;;;;;;;;;21.50;14.25;;;;;;;;5045721;28;51354;-54
2022/02/20 14:11:12;;;;;;;;;13.00;11.75;;;;;;;;5039478;28;51614;-55
2022/02/20 14:13:57;;;;;;;;;11.50;10.75;;;;;;;;5042928;28;51120;-55
2022/02/20 14:16:41;;;;;;;;;12.25;12.25;;;;;;;;5045030;28;51150;-56
2022/02/20 14:19:26;;;;;;;;;16.25;11.50;;;;;;;;5039268;28;51195;-52
2022/02/20 14:22:10;;;;;;;;;18.50;15.25;;;;;;;;5040755;28;51112;-53
2022/02/20 14:25:00;;;;;;;;;12.25;11.00;;;;;;;;5039636;28;51151;-53
2022/02/20 14:27:48;;;;;;;;;13.00;10.75;;;;;;;;5047606;28;51424;-55
2022/02/20 14:30:34;;;;;;;;;16.00;13.00;;;;;;;;5043169;28;51397;-52
2022/02/20 14:33:19;;;;;;;;;19.25;14.00;;;;;;;;5043176;28;51392;-57
2022/02/20 14:36:07;;;;;;;;;13.00;12.00;;;;;;;;5038265;28;51158;-54
2022/02/20 14:38:53;;;;;;;;;15.00;12.75;;;;;;;;5038398;28;51151;-55
2022/02/20 14:41:38;;;;;;;;;14.50;11.25;;;;;;;;5038900;28;51123;-58
2022/02/20 14:44:22;;;;;;;;;16.25;12.00;;;;;;;;5040196;28;51156;-56
2022/02/20 14:47:07;;;;;;;;;12.75;12.00;;;;;;;;5038392;28;50999;-54
2022/02/20 14:49:54;;;;;;;;;15.75;12.75;;;;;;;;5050417;28;51111;-57
2022/02/20 14:52:38;;;;;;;;;13.00;10.50;;;;;;;;5051715;28;51545;-55
2022/02/20 14:55:23;;;;;;;;;15.00;10.00;;;;;;;;5045964;28;51209;-54
2022/02/20 14:58:08;;;;;;;;;13.75;13.75;;;;;;;;5037848;28;51597;-54
2022/02/20 15:00:53;;;;;;;;;18.50;13.00;;;;;;;;5037626;28;51467;-55
2022/02/20 15:03:37;;;;;;;;;15.75;11.25;;;;;;;;5037765;28;51006;-52
2022/02/20 15:06:22;;;;;;;;;15.50;14.50;;;;;;;;5037540;28;51660;-56
2022/02/20 15:09:06;;;;;;;;;19.00;14.75;;;;;;;;5037834;28;51137;-56
2022/02/20 15:11:50;;;;;;;;;18.75;13.25;;;;;;;;5037519;28;51376;-59
2022/02/20 15:14:35;;;;;;;;;16.00;13.75;;;;;;;;5040895;28;51045;-56
2022/02/20 15:17:19;;;;;;;;;17.75;15.00;;;;;;;;5039367;28;51547;-57
2022/02/20 15:20:04;;;;;;;;;19.75;14.75;;;;;;;;5058557;28;51165;-53
2022/02/20 15:22:49;;;;;;;;;17.50;14.75;;;;;;;;5058689;28;51544;-55
2022/02/20 15:25:34;;;;;;;;;13.50;12.25;;;;;;;;5058613;28;51092;-55
2022/02/20 15:28:22;;;;;;;;;14.75;13.50;;;;;;;;5049294;28;51083;-55
2022/02/20 15:31:06;;;;;;;;;17.50;12.25;;;;;;;;5038395;28;51075;-56
2022/02/20 15:33:50;;;;;;;;;18.50;16.50;;;;;;;;5040714;28;51658;-54
2022/02/20 15:36:34;;;;;;;;;20.00;16.75;;;;;;;;5038576;28;51143;-51
2022/02/20 15:39:19;;;;;;;;;16.75;13.00;;;;;;;;5058948;28;51014;-56
2022/02/20 15:42:03;;;;;;;;;15.00;11.25;;;;;;;;5058279;28;51433;-54
2022/02/20 15:44:47;;;;;;;;;17.25;13.75;;;;;;;;5037928;28;51057;-56
2022/02/20 15:47:32;;;;;;;;;12.50;11.75;;;;;;;;5042143;28;51246;-56
2022/02/20 15:50:16;;;;;;;;;19.00;13.25;;;;;;;;5042083;28;51376;-55
2022/02/20 15:53:01;;;;;;;;;17.50;13.75;;;;;;;;5042029;28;51156;-55
2022/02/20 15:55:47;;;;;;;;;16.75;10.75;;;;;;;;5057278;28;51198;-56
2022/02/20 15:58:31;;;;;;;;;13.25;9.75;;;;;;;;5052679;28;51553;-55
2022/02/20 16:01:16;;;;;;;;;17.00;13.75;;;;;;;;5042969;28;51187;-52
2022/02/20 16:04:00;;;;;;;;;15.25;14.00;;;;;;;;5049045;28;51130;-57